SBOSBO LTN / EGGW
Speedbird OnlineSpeedbird Online LTN / EGGW

London Luton Airport
09:24 9.8°C

Location London, United Kingdom
Latitude: 51.874698638916016
Longitude: -0.36833301186561584
Web Airport Website | Wikipedia
Altitude 160 Meter / 526 Feet
Distance 53 KM / 33 Miles
from London.
Time Zone UTC +1 hours (Europe/London)
Codes IATA: LTN
ICAO: EGGW
Runways
RunwayLength (m)Surface
072162Asphalt
252162Asphalt
Radio
TypeDescriptionFrequency
APPAPP129.55
ATISATIS120.575
GNDGND121.75
TWRTWR132.55
Live ATC
METAR EGGW 060750Z AUTO 21009KT 9999 NCD 10/07 Q1027
TAF TAF EGGW 060453Z 0606/0706 24013KT 9999 FEW040
Weather As Of 06 Oct 2022 09:20
Description Clear sky
Wind 17 km/h from South-West (210°)
Cloud Cover 3%
Precipitation Rain: none, Snow: none
Sunrise 07:10
Sunset 18:28
Rotations During the last 90 days there were
1 flights from CPH
1 flights from STR
2 flights to LHR


© 2017-2022 Speedbird Online